Time;durP1;ratioP1;P1;durP2;ratioP2;P2;SDS_P1;SDS_P2;PMS_P1;PMS_P2;Temp;Humidity;BMP_temperature;BMP_pressure;BME280_temperature;BME280_humidity;BME280_pressure;Samples;Min_cycle;Max_cycle;Signal;HPM_P1;HPM_P2
2021/07/11 00:01:23;;;;;;;0.20;0.20;;;;;;;;;;4851757;28;20198;-78
2021/07/11 00:04:04;;;;;;;0.17;0.17;;;14.30;39.30;;;;;;4839536;28;20183;-81
2021/07/11 00:06:47;;;;;;;0.20;0.20;;;14.10;39.10;;;;;;4853878;28;20287;-81
2021/07/11 00:09:28;;;;;;;0.20;0.20;;;14.20;39.30;;;;;;4839588;28;20187;-80
2021/07/11 00:12:09;;;;;;;0.20;0.20;;;;;;;;;;4853439;28;20218;-79
2021/07/11 00:14:51;;;;;;;0.10;0.10;;;13.90;39.00;;;;;;4839290;28;20182;-74
2021/07/11 00:17:32;;;;;;;0.20;0.20;;;13.60;38.70;;;;;;4806040;28;20516;-77
2021/07/11 00:20:15;;;;;;;0.27;0.27;;;13.80;39.30;;;;;;4820482;28;20710;-74
2021/07/11 00:22:58;;;;;;;0.30;0.30;;;13.80;38.90;;;;;;4821331;28;20183;-75
2021/07/11 00:25:39;;;;;;;0.30;0.30;;;13.70;38.30;;;;;;4806729;28;20183;-75
2021/07/11 00:28:20;;;;;;;0.27;0.27;;;14.00;38.80;;;;;;4834434;28;20215;-75
2021/07/11 00:31:01;;;;;;;0.20;0.20;;;13.40;38.30;;;;;;4821151;28;20215;-75
2021/07/11 00:33:42;;;;;;;0.20;0.20;;;14.10;38.90;;;;;;4821087;28;20184;-74
2021/07/11 00:36:24;;;;;;;0.20;0.20;;;;;;;;;;4820005;28;20191;-74
2021/07/11 00:39:06;;;;;;;0.10;0.10;;;13.50;37.30;;;;;;4820239;28;20188;-75
2021/07/11 00:41:48;;;;;;;0.10;0.10;;;13.00;37.50;;;;;;4821879;28;20179;-77
2021/07/11 00:44:29;;;;;;;0.20;0.20;;;;;;;;;;4853603;28;20544;-76
2021/07/11 00:47:13;;;;;;;0.27;0.27;;;;;;;;;;4838744;28;20171;-75
2021/07/11 00:49:54;;;;;;;0.20;0.20;;;;;;;;;;4853013;28;20183;-75
2021/07/11 00:52:38;;;;;;;0.20;0.20;;;;;;;;;;4853331;28;20210;-76
2021/07/11 00:55:23;;;;;;;0.30;0.20;;;13.50;38.10;;;;;;4854122;28;20278;-77
2021/07/11 00:58:05;;;;;;;0.20;0.20;;;13.70;37.60;;;;;;4838864;28;20211;-82
2021/07/11 01:00:56;;;;;;;0.20;0.20;;;13.50;37.50;;;;;;4851851;28;20190;-81
2021/07/11 01:03:40;;;;;;;0.00;0.00;;;13.90;38.00;;;;;;4853543;28;20183;-82
2021/07/11 01:06:29;;;;;;;0.20;0.20;;;13.20;37.30;;;;;;4853187;28;20183;-80
2021/07/11 01:09:14;;;;;;;0.10;0.10;;;13.30;37.40;;;;;;4851456;28;20170;-81
2021/07/11 01:12:05;;;;;;;0.20;0.20;;;12.90;37.60;;;;;;4826289;28;20302;-80
2021/07/11 01:14:55;;;;;;;0.20;0.20;;;13.50;37.40;;;;;;4853374;28;20187;-80
2021/07/11 01:17:40;;;;;;;0.10;0.10;;;13.10;36.90;;;;;;4839389;28;20171;-82
2021/07/11 01:20:37;;;;;;;0.13;0.13;;;13.10;37.30;;;;;;4837654;28;20508;-80
2021/07/11 01:23:31;;;;;;;0.20;0.20;;;13.10;37.30;;;;;;4838968;28;20195;-81
2021/07/11 01:26:15;;;;;;;0.23;0.23;;;13.00;37.00;;;;;;4838923;28;20187;-79
2021/07/11 01:28:58;;;;;;;0.20;0.20;;;13.00;37.00;;;;;;4851781;28;20214;-81
2021/07/11 01:31:43;;;;;;;0.20;0.20;;;12.90;36.50;;;;;;4839960;28;20210;-82
2021/07/11 01:34:26;;;;;;;0.20;0.20;;;13.00;36.40;;;;;;4852742;28;20178;-81
2021/07/11 01:37:08;;;;;;;0.20;0.20;;;12.40;36.60;;;;;;4842662;28;20227;-80
2021/07/11 01:39:49;;;;;;;0.20;0.20;;;12.80;36.80;;;;;;4800880;28;20176;-81
2021/07/11 01:42:34;;;;;;;0.30;0.30;;;12.90;36.10;;;;;;4828662;28;20631;-80
2021/07/11 01:45:15;;;;;;;0.20;0.20;;;;;;;;;;4852208;28;20223;-81
2021/07/11 01:47:56;;;;;;;0.20;0.20;;;13.00;35.90;;;;;;4839771;28;20523;-81
2021/07/11 01:50:38;;;;;;;0.20;0.20;;;12.90;35.60;;;;;;4837548;28;20257;-80
2021/07/11 01:53:19;;;;;;;0.10;0.10;;;;;;;;;;4852432;28;20195;-80
2021/07/11 01:56:01;;;;;;;0.00;0.00;;;;;;;;;;4852622;28;20578;-82
2021/07/11 01:58:45;;;;;;;0.17;0.17;;;12.40;34.90;;;;;;4838769;28;20218;-82
2021/07/11 02:01:30;;;;;;;0.20;0.20;;;;;;;;;;4822554;28;20202;-77
2021/07/11 02:04:20;;;;;;;0.20;0.20;;;12.90;34.80;;;;;;4852227;28;20179;-81
2021/07/11 02:07:05;;;;;;;0.17;0.17;;;12.70;34.60;;;;;;4838335;28;20672;-81
2021/07/11 02:09:46;;;;;;;0.10;0.10;;;12.80;34.50;;;;;;4851668;28;20178;-81
2021/07/11 02:12:35;;;;;;;0.20;0.20;;;12.60;34.50;;;;;;4823555;28;20684;-80
2021/07/11 02:15:19;;;;;;;0.30;0.30;;;12.70;34.30;;;;;;4837786;28;20167;-82
2021/07/11 02:18:03;;;;;;;0.10;0.10;;;;;;;;;;4852093;28;20175;-80
2021/07/11 02:20:55;;;;;;;0.20;0.20;;;12.60;33.40;;;;;;4837563;28;20186;-80
2021/07/11 02:23:38;;;;;;;0.10;0.10;;;12.80;33.60;;;;;;4851403;28;20519;-79
2021/07/11 02:26:25;;;;;;;0.10;0.10;;;12.80;33.00;;;;;;4804755;28;20184;-82
2021/07/11 02:29:07;;;;;;;0.10;0.10;;;;;;;;;;4800458;28;20180;-81
2021/07/11 02:31:50;;;;;;;0.20;0.20;;;12.10;32.70;;;;;;4801225;28;20212;-79
2021/07/11 02:34:32;;;;;;;0.20;0.20;;;13.00;32.90;;;;;;4800564;28;20188;-74
2021/07/11 02:37:19;;;;;;;0.23;0.23;;;13.00;32.70;;;;;;4813528;28;20184;-74
2021/07/11 02:40:02;;;;;;;0.10;0.10;;;13.30;32.30;;;;;;4813073;28;20168;-74
2021/07/11 02:42:45;;;;;;;0.10;0.10;;;13.10;32.00;;;;;;4803708;28;20627;-75
2021/07/11 02:45:27;;;;;;;0.20;0.20;;;12.70;31.70;;;;;;4850326;28;20305;-74
2021/07/11 02:48:13;;;;;;;0.13;0.13;;;13.30;32.20;;;;;;4851717;28;20171;-75
2021/07/11 02:50:57;;;;;;;0.20;0.20;;;13.40;32.20;;;;;;4838530;28;20179;-75
2021/07/11 02:53:42;;;;;;;0.20;0.20;;;13.50;31.80;;;;;;4823872;28;20528;-74
2021/07/11 02:56:25;;;;;;;0.30;0.30;;;13.50;32.00;;;;;;4850342;28;20210;-74
2021/07/11 02:59:09;;;;;;;0.13;0.13;;;13.10;31.60;;;;;;4836602;28;20323;-74
2021/07/11 03:01:55;;;;;;;0.27;0.27;;;13.60;32.00;;;;;;4849585;28;20277;-76
2021/07/11 03:04:44;;;;;;;0.10;0.10;;;14.40;32.10;;;;;;4851407;28;20506;-74
2021/07/11 03:07:28;;;;;;;0.10;0.10;;;13.70;32.00;;;;;;4850088;28;20188;-74
2021/07/11 03:10:11;;;;;;;0.10;0.10;;;13.70;31.70;;;;;;4850492;28;20637;-74
2021/07/11 03:12:59;;;;;;;0.20;0.20;;;13.90;31.90;;;;;;4851097;28;20214;-74
2021/07/11 03:15:42;;;;;;;0.20;0.20;;;13.90;31.80;;;;;;4851260;28;20182;-75
2021/07/11 03:18:26;;;;;;;0.20;0.20;;;13.70;32.30;;;;;;4822232;28;20187;-74
2021/07/11 03:21:09;;;;;;;0.20;0.20;;;14.10;32.30;;;;;;4851040;28;20195;-75
2021/07/11 03:23:56;;;;;;;0.10;0.10;;;13.80;32.50;;;;;;4837161;28;20187;-75
2021/07/11 03:26:39;;;;;;;0.10;0.10;;;13.80;32.50;;;;;;4851097;28;20636;-74
2021/07/11 03:29:29;;;;;;;0.20;0.20;;;13.70;33.00;;;;;;4849141;28;20171;-79
2021/07/11 03:32:12;;;;;;;0.10;0.10;;;13.70;32.80;;;;;;4801108;28;20549;-83
2021/07/11 03:34:54;;;;;;;0.20;0.20;;;13.60;33.20;;;;;;4813341;28;20192;-76
2021/07/11 03:37:44;;;;;;;0.20;0.20;;;13.70;33.10;;;;;;4813199;28;20180;-82
2021/07/11 03:40:29;;;;;;;0.17;0.17;;;13.50;32.60;;;;;;4798700;28;20184;-81
2021/07/11 03:43:15;;;;;;;0.10;0.10;;;13.70;33.00;;;;;;4824698;28;20965;-75
2021/07/11 03:45:59;;;;;;;0.17;0.17;;;13.80;32.50;;;;;;4837087;28;20521;-82
2021/07/11 03:48:44;;;;;;;0.10;0.10;;;14.10;32.50;;;;;;4836281;28;20174;-81
2021/07/11 03:51:32;;;;;;;0.10;0.10;;;12.90;32.20;;;;;;4835745;28;20179;-83
2021/07/11 03:54:15;;;;;;;0.10;0.10;;;13.90;32.60;;;;;;4837778;28;20289;-77
2021/07/11 03:56:56;;;;;;;0.10;0.10;;;13.30;32.00;;;;;;4837908;28;20657;-79
2021/07/11 03:59:39;;;;;;;0.07;0.07;;;14.30;32.30;;;;;;4822290;28;20207;-84
2021/07/11 04:02:22;;;;;;;0.10;0.10;;;14.00;32.10;;;;;;4847841;28;20529;-83
2021/07/11 04:05:05;;;;;;;0.10;0.10;;;13.40;31.90;;;;;;4822982;28;20178;-84
2021/07/11 04:07:49;;;;;;;0.10;0.10;;;14.40;32.10;;;;;;4850656;28;20175;-82
2021/07/11 04:10:32;;;;;;;0.20;0.20;;;14.40;32.00;;;;;;4836966;28;20179;-83
2021/07/11 04:13:14;;;;;;;0.07;0.07;;;;;;;;;;4836521;28;20301;-81
2021/07/11 04:16:00;;;;;;;0.10;0.10;;;14.60;32.00;;;;;;4837748;28;20650;-83
2021/07/11 04:18:45;;;;;;;0.17;0.17;;;14.50;31.90;;;;;;4836906;28;20187;-82
2021/07/11 04:21:29;;;;;;;0.10;0.10;;;15.00;32.10;;;;;;4850515;28;20182;-83
2021/07/11 04:24:10;;;;;;;0.20;0.20;;;14.60;32.00;;;;;;4836091;28;20187;-83
2021/07/11 04:26:56;;;;;;;0.10;0.10;;;15.10;32.50;;;;;;4815441;28;20191;-82
2021/07/11 04:29:38;;;;;;;0.03;0.03;;;15.50;32.70;;;;;;4811928;28;20177;-84
2021/07/11 04:32:20;;;;;;;0.20;0.20;;;15.30;32.60;;;;;;4812484;28;20204;-82
2021/07/11 04:35:01;;;;;;;0.10;0.10;;;15.40;33.00;;;;;;4784562;28;20191;-84
2021/07/11 04:37:42;;;;;;;0.10;0.10;;;15.10;33.10;;;;;;4812529;28;20173;-80
2021/07/11 04:40:23;;;;;;;0.33;0.30;;;;;;;;;;4811652;28;20172;-81
2021/07/11 04:43:06;;;;;;;0.10;0.10;;;15.90;33.90;;;;;;4822230;28;20186;-83
2021/07/11 04:45:48;;;;;;;0.07;0.07;;;15.70;34.90;;;;;;4852935;28;20226;-83
2021/07/11 04:48:29;;;;;;;0.40;0.40;;;15.60;34.80;;;;;;4825371;28;20203;-81
2021/07/11 04:51:12;;;;;;;0.10;0.10;;;16.10;35.20;;;;;;4826194;28;20183;-81
2021/07/11 04:53:53;;;;;;;0.10;0.10;;;;;;;;;;4840554;28;20250;-75
2021/07/11 04:56:35;;;;;;;0.10;0.10;;;16.10;36.60;;;;;;4852971;28;20183;-73
2021/07/11 04:59:17;;;;;;;0.13;0.13;;;16.10;36.70;;;;;;4852449;28;20214;-73
2021/07/11 05:01:58;;;;;;;0.00;0.00;;;15.50;36.90;;;;;;4837753;28;20190;-73
2021/07/11 05:04:39;;;;;;;0.10;0.10;;;;;;;;;;4853471;28;20190;-74
2021/07/11 05:07:20;;;;;;;0.10;0.10;;;16.40;38.30;;;;;;4839239;28;20270;-73
2021/07/11 05:10:01;;;;;;;0.10;0.10;;;16.30;39.40;;;;;;4852664;28;20534;-74
2021/07/11 05:12:42;;;;;;;0.10;0.10;;;16.50;39.90;;;;;;4840262;28;20246;-74
2021/07/11 05:15:25;;;;;;;0.10;0.10;;;16.80;41.00;;;;;;4840277;28;20179;-74
2021/07/11 05:18:07;;;;;;;0.10;0.10;;;17.20;41.60;;;;;;4839376;28;20529;-74
2021/07/11 05:20:48;;;;;;;0.10;0.10;;;17.50;42.70;;;;;;4840141;28;20637;-77
2021/07/11 05:23:29;;;;;;;0.10;0.10;;;17.50;42.70;;;;;;4816755;28;20246;-73
2021/07/11 05:26:11;;;;;;;0.10;0.10;;;;;;;;;;4820351;28;20179;-74
2021/07/11 05:28:52;;;;;;;0.00;0.00;;;;;;;;;;4818334;28;20179;-73
2021/07/11 05:31:35;;;;;;;0.20;0.10;;;17.70;44.90;;;;;;4821195;28;20192;-76
2021/07/11 05:34:16;;;;;;;0.03;0.03;;;;;;;;;;4819594;28;20211;-75
2021/07/11 05:36:57;;;;;;;0.10;0.10;;;17.90;45.50;;;;;;4820941;28;20187;-73
2021/07/11 05:39:38;;;;;;;0.10;0.10;;;;;;;;;;4819482;28;20183;-74
2021/07/11 05:42:19;;;;;;;0.10;0.10;;;;;;;;;;4826020;28;20661;-74
2021/07/11 05:45:00;;;;;;;0.10;0.10;;;18.30;46.90;;;;;;4839609;28;20226;-74
2021/07/11 05:47:43;;;;;;;0.10;0.10;;;18.90;47.30;;;;;;4838747;28;20652;-74
2021/07/11 05:50:24;;;;;;;0.10;0.10;;;19.00;47.70;;;;;;4838006;28;20206;-75
2021/07/11 05:53:09;;;;;;;0.10;0.10;;;18.30;47.70;;;;;;4839501;28;20676;-74
2021/07/11 05:55:51;;;;;;;0.03;0.03;;;18.90;48.10;;;;;;4838870;28;20171;-76
2021/07/11 05:58:32;;;;;;;0.40;0.40;;;18.60;48.30;;;;;;4837765;28;20285;-76
2021/07/11 06:01:13;;;;;;;0.00;0.00;;;;;;;;;;4836854;28;20206;-75
2021/07/11 06:03:56;;;;;;;0.00;0.00;;;19.40;49.20;;;;;;4838700;28;20184;-76
2021/07/11 06:06:37;;;;;;;0.10;0.10;;;19.40;48.90;;;;;;4838685;28;20175;-75
2021/07/11 06:09:18;;;;;;;0.10;0.10;;;20.10;49.40;;;;;;4823848;28;20180;-82
2021/07/11 06:11:59;;;;;;;0.17;0.17;;;;;;;;;;4837581;28;20191;-75
2021/07/11 06:14:40;;;;;;;0.10;0.10;;;19.70;49.60;;;;;;4852195;28;20207;-75
2021/07/11 06:17:22;;;;;;;0.20;0.20;;;;;;;;;;4838182;28;20191;-77
2021/07/11 06:20:06;;;;;;;0.00;0.00;;;20.90;50.40;;;;;;4851857;28;20188;-85
2021/07/11 06:22:47;;;;;;;0.10;0.10;;;20.80;50.20;;;;;;4837437;28;20172;-84
2021/07/11 06:25:28;;;;;;;0.10;0.10;;;20.00;50.30;;;;;;4824092;28;20190;-77
2021/07/11 06:28:09;;;;;;;0.00;0.00;;;20.60;50.50;;;;;;4817903;28;20193;-80
2021/07/11 06:30:53;;;;;;;0.20;0.20;;;;;;;;;;4819359;28;20182;-76
2021/07/11 06:33:35;;;;;;;0.10;0.10;;;20.70;50.40;;;;;;4818314;28;20295;-75
2021/07/11 06:36:17;;;;;;;0.03;0.03;;;20.60;50.60;;;;;;4820202;28;20169;-73
2021/07/11 06:38:58;;;;;;;0.10;0.10;;;20.90;50.60;;;;;;4819512;28;20174;-78
2021/07/11 06:41:40;;;;;;;0.10;0.10;;;21.00;51.20;;;;;;4820337;28;20185;-75
2021/07/11 06:44:21;;;;;;;0.30;0.30;;;20.50;51.00;;;;;;4800260;28;20235;-78
2021/07/11 06:47:03;;;;;;;0.20;0.20;;;21.80;52.70;;;;;;4801632;28;20190;-83
2021/07/11 06:49:44;;;;;;;0.10;0.10;;;21.30;52.30;;;;;;4813222;28;20532;-76
2021/07/11 06:52:26;;;;;;;0.13;0.13;;;21.30;52.50;;;;;;4799789;28;20182;-76
2021/07/11 06:55:09;;;;;;;0.10;0.10;;;21.10;52.50;;;;;;4800289;28;20215;-75
2021/07/11 06:57:51;;;;;;;0.20;0.20;;;;;;;;;;4801174;28;20219;-76
2021/07/11 07:00:32;;;;;;;1.23;1.13;;;22.00;53.00;;;;;;4798262;28;20521;-78
2021/07/11 07:03:14;;;;;;;0.00;0.00;;;;;;;;;;4813743;28;20576;-77
2021/07/11 07:05:55;;;;;;;0.00;0.00;;;;;;;;;;4800011;28;20275;-75
2021/07/11 07:08:37;;;;;;;0.40;0.40;;;22.30;53.20;;;;;;4800312;28;20263;-75
2021/07/11 07:11:18;;;;;;;0.10;0.10;;;22.10;53.20;;;;;;4800909;28;20183;-88
2021/07/11 07:13:59;;;;;;;0.20;0.20;;;22.60;53.40;;;;;;4800945;28;20207;-84
2021/07/11 07:16:40;;;;;;;0.10;0.10;;;22.00;53.20;;;;;;4786567;28;20188;-89
2021/07/11 07:19:21;;;;;;;0.20;0.20;;;22.50;53.50;;;;;;4800656;28;20180;-84
2021/07/11 07:22:02;;;;;;;0.10;0.10;;;23.50;54.00;;;;;;4802182;28;20259;-77
2021/07/11 07:24:45;;;;;;;0.20;0.20;;;23.40;54.20;;;;;;4799725;28;20313;-75
2021/07/11 07:27:26;;;;;;;0.10;0.10;;;;;;;;;;4819017;28;20175;-87
2021/07/11 07:30:09;;;;;;;0.00;0.00;;;23.80;54.50;;;;;;4819956;28;20645;-87
2021/07/11 07:32:51;;;;;;;0.20;0.20;;;23.60;54.50;;;;;;4822045;28;20557;-87
2021/07/11 07:35:33;;;;;;;0.30;0.30;;;24.30;54.80;;;;;;4820415;28;20220;-86
2021/07/11 07:38:13;;;;;;;0.00;0.00;;;24.10;55.10;;;;;;4821710;28;20187;-84
2021/07/11 07:40:56;;;;;;;0.10;0.10;;;24.30;55.10;;;;;;4822077;28;20217;-87
2021/07/11 07:43:37;;;;;;;0.17;0.17;;;24.50;55.20;;;;;;4821793;28;20386;-85
2021/07/11 07:46:18;;;;;;;0.20;0.20;;;25.30;40.70;;;;;;4834233;28;20190;-88
2021/07/11 07:48:59;;;;;;;0.10;0.10;;;25.90;41.10;;;;;;4820283;28;20182;-90
2021/07/11 07:51:40;;;;;;;0.10;0.10;;;26.30;41.50;;;;;;4819911;28;20509;-82
2021/07/11 07:54:21;;;;;;;0.27;0.27;;;25.60;41.50;;;;;;4819600;28;20211;-91
2021/07/11 07:57:04;;;;;;;0.10;0.10;;;26.10;41.90;;;;;;4821540;28;20715;-92
2021/07/11 07:59:45;;;;;;;0.10;0.10;;;25.80;41.70;;;;;;4819508;28;20211;-89
2021/07/11 08:02:26;;;;;;;0.20;0.20;;;26.10;41.80;;;;;;4831431;28;20641;-85
2021/07/11 08:05:08;;;;;;;0.10;0.10;;;25.70;41.70;;;;;;4821224;28;20176;-88
2021/07/11 08:07:49;;;;;;;0.10;0.10;;;26.20;41.90;;;;;;4820764;28;20176;-93
2021/07/11 08:10:31;;;;;;;0.23;0.23;;;;;;;;;;4818460;28;20184;-88
2021/07/11 08:13:13;;;;;;;0.10;0.10;;;25.60;41.70;;;;;;4820900;28;20686;-86
2021/07/11 08:15:54;;;;;;;0.10;0.10;;;25.50;41.60;;;;;;4822041;28;20653;-81
2021/07/11 08:18:35;;;;;;;0.40;0.40;;;26.20;42.00;;;;;;4822510;28;20189;-87
2021/07/11 08:21:17;;;;;;;0.20;0.20;;;;;;;;;;4837172;28;20176;-90
2021/07/11 08:23:58;;;;;;;0.10;0.10;;;25.70;42.00;;;;;;4823346;28;20270;-87
2021/07/11 08:26:39;;;;;;;0.23;0.23;;;26.60;42.20;;;;;;4822744;28;20184;-89
2021/07/11 08:29:22;;;;;;;0.30;0.30;;;27.00;42.30;;;;;;4805556;28;20187;-88
2021/07/11 08:32:03;;;;;;;0.20;0.20;;;27.00;42.60;;;;;;4818920;28;20181;-87
2021/07/11 08:34:44;;;;;;;0.20;0.20;;;;;;;;;;4806153;28;20206;-86
2021/07/11 08:37:25;;;;;;;0.43;0.40;;;27.80;43.10;;;;;;4808836;28;20187;-84
2021/07/11 08:40:09;;;;;;;0.70;0.30;;;28.20;43.20;;;;;;4805572;28;20211;-87
2021/07/11 08:42:52;;;;;;;0.33;0.33;;;28.30;43.60;;;;;;4803753;28;20184;-86
2021/07/11 08:45:35;;;;;;;0.10;0.10;;;28.40;43.70;;;;;;4806021;28;20503;-90
2021/07/11 08:48:17;;;;;;;0.33;0.33;;;29.60;44.40;;;;;;4815998;28;20199;-85
2021/07/11 08:51:01;;;;;;;0.10;0.10;;;28.90;44.50;;;;;;4822469;28;20183;-90
2021/07/11 08:53:43;;;;;;;0.10;0.10;;;;;;;;;;4822914;28;20216;-82
2021/07/11 08:56:25;;;;;;;0.77;0.50;;;29.00;44.30;;;;;;4811782;28;20181;-90
2021/07/11 08:59:07;;;;;;;0.10;0.10;;;29.00;44.60;;;;;;4824879;28;20212;-92
2021/07/11 09:01:50;;;;;;;0.20;0.10;;;29.20;44.70;;;;;;4824282;28;20190;-86
2021/07/11 09:04:39;;;;;;;0.33;0.33;;;29.40;45.10;;;;;;4822475;28;20276;-85
2021/07/11 09:07:22;;;;;;;0.50;0.50;;;29.70;45.20;;;;;;4822544;28;20186;-85
2021/07/11 09:10:04;;;;;;;0.30;0.20;;;;;;;;;;4822639;28;20190;-91
2021/07/11 09:12:54;;;;;;;0.10;0.10;;;30.90;45.70;;;;;;4826432;28;20217;-90
2021/07/11 09:15:37;;;;;;;0.10;0.10;;;30.50;45.90;;;;;;4824702;28;20555;-83
2021/07/11 09:18:25;;;;;;;0.17;0.17;;;30.80;46.00;;;;;;4826165;28;20209;-77
2021/07/11 09:21:11;;;;;;;0.17;0.10;;;32.10;46.40;;;;;;4825222;28;20171;-88
2021/07/11 09:23:52;;;;;;;1.17;0.43;;;32.80;46.80;;;;;;4815838;28;20199;-88
2021/07/11 09:26:37;;;;;;;0.77;0.20;;;32.70;47.40;;;;;;4819013;28;20192;-84
2021/07/11 09:29:30;;;;;;;5.20;1.05;;;32.70;46.90;;;;;;4805989;28;20184;-91
2021/07/11 09:32:23;;;;;;;1.40;0.40;;;33.30;47.30;;;;;;4807715;28;20180;-95
2021/07/11 09:35:11;;;;;;;2.25;0.65;;;33.10;47.30;;;;;;4805813;28;20247;-90
2021/07/11 09:37:54;;;;;;;2.55;0.80;;;32.40;47.40;;;;;;4804801;28;20180;-86
2021/07/11 09:40:39;;;;;;;1.65;0.68;;;32.00;47.40;;;;;;4819168;28;20180;-87
2021/07/11 09:43:21;;;;;;;3.95;1.33;;;;;;;;;;4828369;28;20179;-74
2021/07/11 09:46:12;;;;;;;2.50;1.00;;;32.10;46.80;;;;;;4839189;28;20187;-74
2021/07/11 09:48:53;;;;;;;4.17;1.47;;;;;;;;;;4836492;28;20193;-74
2021/07/11 09:51:35;;;;;;;1.37;0.50;;;31.60;46.90;;;;;;4839185;28;20723;-76
2021/07/11 09:54:17;;;;;;;1.50;0.60;;;31.10;46.30;;;;;;4838738;28;20186;-75
2021/07/11 09:56:58;;;;;;;1.90;0.80;;;;;;;;;;4839031;28;20183;-75
2021/07/11 09:59:38;;;;;;;2.60;0.90;;;31.60;46.60;;;;;;4837611;28;20210;-74
2021/07/11 10:02:20;;;;;;;5.13;1.98;;;;;;;;;;4836573;28;20651;-74
2021/07/11 10:05:01;;;;;;;2.42;0.90;;;31.60;46.70;;;;;;4852090;28;20183;-75
2021/07/11 10:07:44;;;;;;;2.25;0.90;;;32.50;47.30;;;;;;4839157;28;20186;-77
2021/07/11 10:10:27;;;;;;;3.10;1.27;;;32.10;47.30;;;;;;4837372;28;20186;-76
2021/07/11 10:13:09;;;;;;;1.95;0.75;;;;;;;;;;4839747;28;20633;-75
2021/07/11 10:15:50;;;;;;;1.27;0.60;;;36.20;48.80;;;;;;4853334;28;20559;-74
2021/07/11 10:18:32;;;;;;;5.53;2.08;;;38.10;49.50;;;;;;4852142;28;20649;-75
2021/07/11 10:21:14;;;;;;;2.60;0.60;;;38.90;50.50;;;;;;4838703;28;20182;-91
2021/07/11 10:23:57;;;;;;;2.30;0.55;;;39.50;50.50;;;;;;4840094;28;20213;-78
2021/07/11 10:26:40;;;;;;;2.20;0.47;;;40.70;51.10;;;;;;4839605;28;20183;-76
2021/07/11 10:29:22;;;;;;;10.13;1.65;;;42.90;52.30;;;;;;4837665;28;20182;-77
2021/07/11 10:32:04;;;;;;;5.75;1.00;;;44.10;52.30;;;;;;4837252;28;20210;-79
2021/07/11 10:34:46;;;;;;;4.43;0.88;;;44.80;52.80;;;;;;4832796;28;20179;-76
2021/07/11 10:37:26;;;;;;;8.23;1.88;;;46.20;53.50;;;;;;4801242;28;20270;-73
2021/07/11 10:40:12;;;;;;;2.40;0.73;;;46.30;53.70;;;;;;4801002;28;20180;-74
2021/07/11 10:42:53;;;;;;;2.28;0.70;;;46.80;53.80;;;;;;4819910;28;20198;-78
2021/07/11 10:45:45;;;;;;;1.83;0.50;;;46.90;54.10;;;;;;4823842;28;20242;-77
2021/07/11 10:48:28;;;;;;;7.05;2.20;;;47.40;54.10;;;;;;4851560;28;20179;-78
2021/07/11 10:51:19;;;;;;;2.05;0.80;;;47.30;54.30;;;;;;4837808;28;20187;-76
2021/07/11 10:54:00;;;;;;;1.33;0.55;;;46.70;54.00;;;;;;4838456;28;20269;-75
2021/07/11 10:56:44;;;;;;;1.27;0.45;;;46.60;54.10;;;;;;4839332;28;20216;-76
2021/07/11 10:59:31;;;;;;;1.98;0.55;;;43.20;52.70;;;;;;4854572;28;20211;-90
2021/07/11 11:02:20;;;;;;;1.55;0.50;;;41.80;52.20;;;;;;4854674;28;20190;-87
2021/07/11 11:05:02;;;;;;;1.10;0.40;;;40.30;51.50;;;;;;4842802;28;20257;-90
2021/07/11 11:07:45;;;;;;;1.35;0.47;;;38.00;50.80;;;;;;4858112;28;20179;-94
2021/07/11 11:10:29;;;;;;;2.00;0.80;;;36.60;50.10;;;;;;4855178;28;20517;-87
2021/07/11 11:13:27;;;;;;;1.15;0.43;;;35.90;49.70;;;;;;4854251;28;20178;-89
2021/07/11 11:16:17;;;;;;;1.65;0.57;;;34.30;49.30;;;;;;4839503;28;20178;-86
2021/07/11 11:18:58;;;;;;;1.92;0.70;;;32.80;48.20;;;;;;4815813;28;20677;-82
2021/07/11 11:21:38;;;;;;;1.15;0.45;;;31.30;47.70;;;;;;4833403;28;20179;-85
2021/07/11 11:24:19;;;;;;;3.10;1.15;;;31.00;47.40;;;;;;4820332;28;20186;-85
2021/07/11 11:27:00;;;;;;;3.15;1.05;;;30.30;47.10;;;;;;4819064;28;20691;-82
2021/07/11 11:29:43;;;;;;;2.30;0.77;;;30.50;47.10;;;;;;4819140;28;20179;-82
2021/07/11 11:32:28;;;;;;;3.75;1.27;;;29.50;47.00;;;;;;4818441;28;20503;-77
2021/07/11 11:35:10;;;;;;;3.20;1.15;;;29.10;46.80;;;;;;4818267;28;20183;-77
2021/07/11 11:37:55;;;;;;;1.92;0.82;;;28.90;46.20;;;;;;4818130;28;20183;-83
2021/07/11 11:40:37;;;;;;;1.20;0.50;;;28.10;46.20;;;;;;4817772;28;20258;-79
2021/07/11 11:43:23;;;;;;;3.65;1.33;;;27.90;45.60;;;;;;4819608;28;20195;-84
2021/07/11 11:46:06;;;;;;;2.20;1.10;;;27.70;45.80;;;;;;4818583;28;20215;-83
2021/07/11 11:48:54;;;;;;;1.43;0.60;;;27.30;45.40;;;;;;4803513;28;20529;-82
2021/07/11 11:51:37;;;;;;;1.43;0.53;;;27.30;45.20;;;;;;4819257;28;20184;-83
2021/07/11 11:54:25;;;;;;;2.50;0.97;;;27.40;44.70;;;;;;4808292;28;20675;-86
2021/07/11 11:57:08;;;;;;;2.40;1.20;;;26.90;44.40;;;;;;4823891;28;20187;-88
2021/07/11 11:59:50;;;;;;;0.73;0.50;;;26.60;44.50;;;;;;4821604;28;20181;-83
2021/07/11 12:02:33;;;;;;;2.20;1.23;;;26.60;43.60;;;;;;4821042;28;20283;-81
2021/07/11 12:05:16;;;;;;;0.70;0.43;;;25.80;43.50;;;;;;4822480;28;20191;-78
2021/07/11 12:07:58;;;;;;;1.97;1.07;;;25.20;42.50;;;;;;4822196;28;20186;-78
2021/07/11 12:10:39;;;;;;;1.50;0.70;;;;;;;;;;4822172;28;20511;-78
2021/07/11 12:13:24;;;;;;;1.80;0.97;;;23.90;56.60;;;;;;4821179;28;20214;-76
2021/07/11 12:16:09;;;;;;;0.93;0.60;;;24.00;56.30;;;;;;4822406;28;20528;-76
2021/07/11 12:18:54;;;;;;;1.03;0.83;;;23.30;53.40;;;;;;4821277;28;20183;-77
2021/07/11 12:21:43;;;;;;;0.63;0.40;;;22.40;51.50;;;;;;4821762;28;20522;-78
2021/07/11 12:24:26;;;;;;;1.10;0.73;;;22.50;51.60;;;;;;4822267;28;20270;-77
2021/07/11 12:27:08;;;;;;;0.97;0.73;;;;;;;;;;4821951;28;20678;-79
2021/07/11 12:29:49;;;;;;;1.10;0.90;;;21.70;51.20;;;;;;4819750;28;20199;-78
2021/07/11 12:32:43;;;;;;;1.30;1.03;;;21.40;49.90;;;;;;4820984;28;20179;-79
2021/07/11 12:35:26;;;;;;;1.13;0.77;;;21.20;49.40;;;;;;4822029;28;20258;-78
2021/07/11 12:38:07;;;;;;;0.40;0.40;;;21.00;47.20;;;;;;4811304;28;20656;-77
2021/07/11 12:40:56;;;;;;;1.50;1.10;;;21.20;44.50;;;;;;4802464;28;20179;-83
2021/07/11 12:43:47;;;;;;;0.37;0.37;;;20.60;42.30;;;;;;4834543;28;20215;-78
2021/07/11 12:46:28;;;;;;;0.20;0.20;;;21.20;42.10;;;;;;4839443;28;20212;-78
2021/07/11 12:49:11;;;;;;;0.30;0.30;;;21.40;43.10;;;;;;4838980;28;20181;-80
2021/07/11 12:51:53;;;;;;;0.20;0.20;;;21.00;43.20;;;;;;4838833;28;20189;-80
2021/07/11 12:54:35;;;;;;;0.20;0.20;;;;;;;;;;4838511;28;20193;-77
2021/07/11 12:57:16;;;;;;;0.13;0.13;;;21.70;42.30;;;;;;4839408;28;20177;-78
2021/07/11 12:59:57;;;;;;;0.23;0.23;;;21.70;43.10;;;;;;4850280;28;20186;-78
2021/07/11 13:02:38;;;;;;;0.27;0.27;;;22.50;42.30;;;;;;4835983;28;20189;-78
2021/07/11 13:05:19;;;;;;;0.30;0.30;;;23.10;41.70;;;;;;4850998;28;20214;-78
2021/07/11 13:08:05;;;;;;;0.30;0.30;;;22.90;46.50;;;;;;4851501;28;20201;-77
2021/07/11 13:10:46;;;;;;;0.30;0.30;;;24.30;48.50;;;;;;4837929;28;20183;-78
2021/07/11 13:13:27;;;;;;;0.67;0.67;;;24.60;49.60;;;;;;4850049;28;20216;-77
2021/07/11 13:16:08;;;;;;;0.70;0.67;;;25.50;36.40;;;;;;4835421;28;20217;-78
2021/07/11 13:18:50;;;;;;;0.20;0.20;;;26.10;38.80;;;;;;4831556;28;20712;-78
2021/07/11 13:21:31;;;;;;;0.50;0.50;;;26.30;39.00;;;;;;4818342;28;20640;-79
2021/07/11 13:24:14;;;;;;;0.30;0.30;;;26.30;39.30;;;;;;4817704;28;20336;-78
2021/07/11 13:26:56;;;;;;;0.80;0.60;;;;;;;;;;4818177;28;20756;-80
2021/07/11 13:29:37;;;;;;;0.17;0.17;;;;;;;;;;4818506;28;20229;-79
2021/07/11 13:32:21;;;;;;;0.60;0.60;;;25.80;39.10;;;;;;4818508;28;20701;-83
2021/07/11 13:35:02;;;;;;;0.50;0.43;;;25.50;38.70;;;;;;4818568;28;20473;-80
2021/07/11 13:37:43;;;;;;;0.30;0.30;;;25.90;39.10;;;;;;4832006;28;20180;-79
2021/07/11 13:40:26;;;;;;;0.77;0.60;;;25.30;38.90;;;;;;4818378;28;20510;-80
2021/07/11 13:43:07;;;;;;;1.00;0.53;;;25.30;38.80;;;;;;4830303;28;20187;-80
2021/07/11 13:45:48;;;;;;;0.50;0.50;;;24.20;53.00;;;;;;4800773;28;1436327;-81
2021/07/11 13:48:30;;;;;;;0.80;0.80;;;23.20;52.80;;;;;;4837331;28;20521;-81
2021/07/11 13:51:12;;;;;;;0.30;0.30;;;23.90;52.50;;;;;;4838857;28;20189;-80
2021/07/11 13:53:53;;;;;;;0.10;0.10;;;24.00;52.50;;;;;;4838924;28;20190;-79
2021/07/11 13:56:35;;;;;;;0.30;0.30;;;23.80;52.40;;;;;;4852318;28;20185;-84
2021/07/11 13:59:17;;;;;;;0.33;0.33;;;24.10;52.40;;;;;;4837880;28;20897;-86
2021/07/11 14:01:59;;;;;;;0.20;0.20;;;24.00;52.30;;;;;;4837192;28;20189;-85
2021/07/11 14:04:40;;;;;;;0.20;0.20;;;23.10;52.00;;;;;;4839804;28;20189;-84
2021/07/11 14:07:22;;;;;;;0.60;0.60;;;;;;;;;;4837353;28;20217;-85
2021/07/11 14:10:06;;;;;;;0.20;0.20;;;23.10;51.60;;;;;;4837830;28;20182;-82
2021/07/11 14:12:49;;;;;;;0.20;0.20;;;23.20;51.90;;;;;;4838692;28;20269;-80
2021/07/11 14:15:31;;;;;;;0.43;0.43;;;23.10;51.40;;;;;;4836655;28;20185;-82
2021/07/11 14:18:12;;;;;;;0.23;0.23;;;;;;;;;;4850575;28;20176;-81
2021/07/11 14:20:53;;;;;;;0.30;0.30;;;23.60;51.50;;;;;;4837448;28;20188;-81
2021/07/11 14:23:34;;;;;;;0.30;0.30;;;;;;;;;;4838322;28;20203;-79
2021/07/11 14:26:15;;;;;;;0.23;0.23;;;23.60;51.40;;;;;;4838031;28;20192;-78